sensor_id;sensor_type;location;lat;lon;timestamp;P1;durP1;ratioP1;P2;durP2;ratioP2
14770;SDS011;7477;45.222;5.688;2023-07-31T00:01:06;3.85;;;1.80;;
14770;SDS011;7477;45.222;5.688;2023-07-31T00:04:25;5.75;;;2.30;;
14770;SDS011;7477;45.222;5.688;2023-07-31T00:07:44;6.63;;;3.05;;
14770;SDS011;7477;45.222;5.688;2023-07-31T00:11:03;4.13;;;1.95;;
14770;SDS011;7477;45.222;5.688;2023-07-31T00:14:23;3.28;;;1.92;;
14770;SDS011;7477;45.222;5.688;2023-07-31T00:17:42;3.30;;;2.00;;
14770;SDS011;7477;45.222;5.688;2023-07-31T00:21:01;4.40;;;1.70;;
14770;SDS011;7477;45.222;5.688;2023-07-31T00:24:21;3.92;;;1.70;;
14770;SDS011;7477;45.222;5.688;2023-07-31T00:27:40;3.28;;;1.77;;
14770;SDS011;7477;45.222;5.688;2023-07-31T00:31:02;3.92;;;1.98;;
14770;SDS011;7477;45.222;5.688;2023-07-31T00:34:22;2.67;;;1.90;;
14770;SDS011;7477;45.222;5.688;2023-07-31T00:37:41;2.80;;;1.80;;
14770;SDS011;7477;45.222;5.688;2023-07-31T00:41:00;3.67;;;1.98;;
14770;SDS011;7477;45.222;5.688;2023-07-31T00:44:19;2.72;;;1.83;;
14770;SDS011;7477;45.222;5.688;2023-07-31T00:47:38;2.10;;;1.85;;
14770;SDS011;7477;45.222;5.688;2023-07-31T00:50:58;2.75;;;1.55;;
14770;SDS011;7477;45.222;5.688;2023-07-31T00:54:17;2.22;;;1.98;;
14770;SDS011;7477;45.222;5.688;2023-07-31T00:57:37;1.98;;;1.63;;
14770;SDS011;7477;45.222;5.688;2023-07-31T01:01:00;3.42;;;1.92;;
14770;SDS011;7477;45.222;5.688;2023-07-31T01:04:19;2.40;;;1.58;;
14770;SDS011;7477;45.222;5.688;2023-07-31T01:07:42;2.47;;;1.50;;
14770;SDS011;7477;45.222;5.688;2023-07-31T01:11:14;2.25;;;1.75;;
14770;SDS011;7477;45.222;5.688;2023-07-31T01:14:38;4.25;;;1.55;;
14770;SDS011;7477;45.222;5.688;2023-07-31T01:17:57;4.57;;;1.75;;
14770;SDS011;7477;45.222;5.688;2023-07-31T01:32:13;2.33;;;1.50;;
14770;SDS011;7477;45.222;5.688;2023-07-31T01:35:36;3.10;;;1.92;;
14770;SDS011;7477;45.222;5.688;2023-07-31T01:39:00;1.98;;;1.77;;
14770;SDS011;7477;45.222;5.688;2023-07-31T01:42:20;2.28;;;1.60;;
14770;SDS011;7477;45.222;5.688;2023-07-31T01:45:39;3.75;;;1.80;;
14770;SDS011;7477;45.222;5.688;2023-07-31T01:48:58;3.25;;;1.70;;
14770;SDS011;7477;45.222;5.688;2023-07-31T01:52:17;3.53;;;1.85;;
14770;SDS011;7477;45.222;5.688;2023-07-31T01:55:36;2.35;;;1.77;;
14770;SDS011;7477;45.222;5.688;2023-07-31T01:58:55;2.65;;;1.77;;
14770;SDS011;7477;45.222;5.688;2023-07-31T02:02:14;6.15;;;1.80;;
14770;SDS011;7477;45.222;5.688;2023-07-31T02:05:34;3.97;;;2.20;;
14770;SDS011;7477;45.222;5.688;2023-07-31T02:08:53;4.20;;;2.03;;
14770;SDS011;7477;45.222;5.688;2023-07-31T02:12:12;3.47;;;2.03;;
14770;SDS011;7477;45.222;5.688;2023-07-31T02:15:32;2.70;;;1.70;;
14770;SDS011;7477;45.222;5.688;2023-07-31T02:18:52;2.80;;;1.75;;
14770;SDS011;7477;45.222;5.688;2023-07-31T02:22:11;2.40;;;1.73;;
14770;SDS011;7477;45.222;5.688;2023-07-31T02:25:30;2.83;;;1.83;;
14770;SDS011;7477;45.222;5.688;2023-07-31T02:28:49;2.72;;;1.65;;
14770;SDS011;7477;45.222;5.688;2023-07-31T02:32:08;2.90;;;1.60;;
14770;SDS011;7477;45.222;5.688;2023-07-31T02:35:28;3.03;;;2.00;;
14770;SDS011;7477;45.222;5.688;2023-07-31T02:38:47;4.68;;;1.85;;
14770;SDS011;7477;45.222;5.688;2023-07-31T02:42:06;3.17;;;2.00;;
14770;SDS011;7477;45.222;5.688;2023-07-31T02:45:25;2.65;;;2.40;;
14770;SDS011;7477;45.222;5.688;2023-07-31T02:48:45;2.85;;;2.10;;
14770;SDS011;7477;45.222;5.688;2023-07-31T02:52:04;4.18;;;1.42;;
14770;SDS011;7477;45.222;5.688;2023-07-31T02:55:23;2.92;;;1.83;;
14770;SDS011;7477;45.222;5.688;2023-07-31T02:58:43;4.28;;;2.08;;
14770;SDS011;7477;45.222;5.688;2023-07-31T03:02:02;2.60;;;1.92;;
14770;SDS011;7477;45.222;5.688;2023-07-31T03:05:21;2.13;;;1.60;;
14770;SDS011;7477;45.222;5.688;2023-07-31T03:08:40;2.67;;;1.90;;
14770;SDS011;7477;45.222;5.688;2023-07-31T03:12:00;2.42;;;1.60;;
14770;SDS011;7477;45.222;5.688;2023-07-31T03:15:19;3.20;;;1.88;;
14770;SDS011;7477;45.222;5.688;2023-07-31T03:18:38;6.15;;;1.95;;
14770;SDS011;7477;45.222;5.688;2023-07-31T03:21:57;2.42;;;1.85;;
14770;SDS011;7477;45.222;5.688;2023-07-31T03:25:17;2.97;;;1.80;;
14770;SDS011;7477;45.222;5.688;2023-07-31T03:28:36;2.17;;;1.98;;
14770;SDS011;7477;45.222;5.688;2023-07-31T03:31:55;5.15;;;2.22;;
14770;SDS011;7477;45.222;5.688;2023-07-31T03:35:14;3.78;;;1.80;;
14770;SDS011;7477;45.222;5.688;2023-07-31T03:38:34;2.60;;;1.73;;
14770;SDS011;7477;45.222;5.688;2023-07-31T03:41:53;2.45;;;1.60;;
14770;SDS011;7477;45.222;5.688;2023-07-31T03:45:12;3.10;;;1.75;;
14770;SDS011;7477;45.222;5.688;2023-07-31T03:48:31;2.70;;;1.88;;
14770;SDS011;7477;45.222;5.688;2023-07-31T03:51:50;1.95;;;1.67;;
14770;SDS011;7477;45.222;5.688;2023-07-31T03:55:10;4.30;;;1.80;;
14770;SDS011;7477;45.222;5.688;2023-07-31T03:58:29;6.93;;;1.67;;
14770;SDS011;7477;45.222;5.688;2023-07-31T04:01:48;2.75;;;1.67;;
14770;SDS011;7477;45.222;5.688;2023-07-31T04:05:07;4.00;;;2.00;;
14770;SDS011;7477;45.222;5.688;2023-07-31T04:08:27;2.70;;;1.65;;
14770;SDS011;7477;45.222;5.688;2023-07-31T04:11:46;3.08;;;2.10;;
14770;SDS011;7477;45.222;5.688;2023-07-31T04:15:05;4.05;;;2.17;;
14770;SDS011;7477;45.222;5.688;2023-07-31T04:18:24;3.15;;;1.73;;
14770;SDS011;7477;45.222;5.688;2023-07-31T04:21:44;2.80;;;1.88;;
14770;SDS011;7477;45.222;5.688;2023-07-31T04:25:03;1.95;;;1.80;;
14770;SDS011;7477;45.222;5.688;2023-07-31T04:28:23;2.78;;;2.00;;
14770;SDS011;7477;45.222;5.688;2023-07-31T04:31:44;1.85;;;1.63;;
14770;SDS011;7477;45.222;5.688;2023-07-31T04:35:04;3.33;;;2.00;;
14770;SDS011;7477;45.222;5.688;2023-07-31T04:38:24;2.15;;;1.90;;
14770;SDS011;7477;45.222;5.688;2023-07-31T04:41:43;3.25;;;2.20;;
14770;SDS011;7477;45.222;5.688;2023-07-31T04:45:02;4.97;;;2.28;;
14770;SDS011;7477;45.222;5.688;2023-07-31T04:48:22;3.85;;;2.25;;
14770;SDS011;7477;45.222;5.688;2023-07-31T04:51:41;4.60;;;1.95;;
14770;SDS011;7477;45.222;5.688;2023-07-31T04:55:00;3.40;;;1.98;;
14770;SDS011;7477;45.222;5.688;2023-07-31T04:58:19;2.50;;;1.85;;
14770;SDS011;7477;45.222;5.688;2023-07-31T05:01:38;5.10;;;2.30;;
14770;SDS011;7477;45.222;5.688;2023-07-31T05:04:57;4.40;;;2.08;;
14770;SDS011;7477;45.222;5.688;2023-07-31T05:08:16;3.00;;;2.30;;
14770;SDS011;7477;45.222;5.688;2023-07-31T05:11:38;4.40;;;1.92;;
14770;SDS011;7477;45.222;5.688;2023-07-31T05:14:59;3.80;;;1.85;;
14770;SDS011;7477;45.222;5.688;2023-07-31T05:18:18;3.42;;;1.92;;
14770;SDS011;7477;45.222;5.688;2023-07-31T05:21:37;4.20;;;2.20;;
14770;SDS011;7477;45.222;5.688;2023-07-31T05:24:56;2.90;;;1.92;;
14770;SDS011;7477;45.222;5.688;2023-07-31T05:28:16;5.72;;;2.28;;
14770;SDS011;7477;45.222;5.688;2023-07-31T05:31:35;5.65;;;2.40;;
14770;SDS011;7477;45.222;5.688;2023-07-31T05:34:54;2.70;;;2.38;;
14770;SDS011;7477;45.222;5.688;2023-07-31T05:38:13;5.45;;;2.10;;
14770;SDS011;7477;45.222;5.688;2023-07-31T05:41:32;5.38;;;2.47;;
14770;SDS011;7477;45.222;5.688;2023-07-31T05:44:51;4.80;;;1.90;;
14770;SDS011;7477;45.222;5.688;2023-07-31T05:48:10;4.18;;;2.20;;
14770;SDS011;7477;45.222;5.688;2023-07-31T05:51:29;4.20;;;2.35;;
14770;SDS011;7477;45.222;5.688;2023-07-31T05:54:48;2.65;;;2.17;;
14770;SDS011;7477;45.222;5.688;2023-07-31T05:58:07;4.50;;;2.28;;
14770;SDS011;7477;45.222;5.688;2023-07-31T06:01:27;3.33;;;2.20;;
14770;SDS011;7477;45.222;5.688;2023-07-31T06:04:46;3.85;;;2.20;;
14770;SDS011;7477;45.222;5.688;2023-07-31T06:08:05;3.60;;;1.90;;
14770;SDS011;7477;45.222;5.688;2023-07-31T06:11:24;3.20;;;2.15;;
14770;SDS011;7477;45.222;5.688;2023-07-31T06:14:44;4.25;;;2.40;;
14770;SDS011;7477;45.222;5.688;2023-07-31T06:18:03;4.25;;;2.42;;
14770;SDS011;7477;45.222;5.688;2023-07-31T06:21:23;3.85;;;2.58;;
14770;SDS011;7477;45.222;5.688;2023-07-31T06:24:42;4.55;;;2.50;;
14770;SDS011;7477;45.222;5.688;2023-07-31T06:28:01;5.85;;;2.42;;
14770;SDS011;7477;45.222;5.688;2023-07-31T06:31:21;4.45;;;2.13;;
14770;SDS011;7477;45.222;5.688;2023-07-31T06:34:41;4.47;;;2.40;;
14770;SDS011;7477;45.222;5.688;2023-07-31T06:38:01;3.78;;;2.22;;
14770;SDS011;7477;45.222;5.688;2023-07-31T06:41:21;2.85;;;2.00;;
14770;SDS011;7477;45.222;5.688;2023-07-31T06:44:40;3.15;;;2.10;;
14770;SDS011;7477;45.222;5.688;2023-07-31T06:47:59;2.92;;;2.00;;
14770;SDS011;7477;45.222;5.688;2023-07-31T06:51:20;5.35;;;2.10;;
14770;SDS011;7477;45.222;5.688;2023-07-31T06:54:39;3.10;;;2.40;;
14770;SDS011;7477;45.222;5.688;2023-07-31T06:57:58;3.92;;;2.40;;
14770;SDS011;7477;45.222;5.688;2023-07-31T07:01:17;6.13;;;2.28;;
14770;SDS011;7477;45.222;5.688;2023-07-31T07:04:37;3.92;;;2.10;;
14770;SDS011;7477;45.222;5.688;2023-07-31T07:07:56;3.90;;;2.65;;
14770;SDS011;7477;45.222;5.688;2023-07-31T07:11:15;4.18;;;2.72;;
14770;SDS011;7477;45.222;5.688;2023-07-31T07:14:34;4.53;;;2.75;;
14770;SDS011;7477;45.222;5.688;2023-07-31T07:17:53;4.78;;;2.28;;
14770;SDS011;7477;45.222;5.688;2023-07-31T07:21:12;5.72;;;2.25;;
14770;SDS011;7477;45.222;5.688;2023-07-31T07:24:34;3.88;;;2.60;;
14770;SDS011;7477;45.222;5.688;2023-07-31T07:27:54;4.68;;;2.85;;
14770;SDS011;7477;45.222;5.688;2023-07-31T07:31:13;7.43;;;2.78;;
14770;SDS011;7477;45.222;5.688;2023-07-31T07:34:32;3.35;;;2.50;;
14770;SDS011;7477;45.222;5.688;2023-07-31T07:37:51;3.75;;;2.38;;
14770;SDS011;7477;45.222;5.688;2023-07-31T07:41:11;7.28;;;2.97;;
14770;SDS011;7477;45.222;5.688;2023-07-31T07:44:31;3.95;;;2.22;;
14770;SDS011;7477;45.222;5.688;2023-07-31T07:47:50;5.68;;;3.33;;
14770;SDS011;7477;45.222;5.688;2023-07-31T07:51:10;3.50;;;2.28;;
14770;SDS011;7477;45.222;5.688;2023-07-31T07:54:29;4.15;;;2.20;;
14770;SDS011;7477;45.222;5.688;2023-07-31T07:57:49;4.00;;;2.40;;
14770;SDS011;7477;45.222;5.688;2023-07-31T08:01:09;2.97;;;2.25;;
14770;SDS011;7477;45.222;5.688;2023-07-31T08:04:28;6.03;;;2.10;;
14770;SDS011;7477;45.222;5.688;2023-07-31T08:07:47;2.05;;;1.77;;
14770;SDS011;7477;45.222;5.688;2023-07-31T08:11:06;3.30;;;2.13;;
14770;SDS011;7477;45.222;5.688;2023-07-31T08:14:25;4.45;;;1.98;;
14770;SDS011;7477;45.222;5.688;2023-07-31T08:17:45;3.30;;;2.05;;
14770;SDS011;7477;45.222;5.688;2023-07-31T08:21:13;2.60;;;2.20;;
14770;SDS011;7477;45.222;5.688;2023-07-31T08:24:32;5.57;;;2.28;;
14770;SDS011;7477;45.222;5.688;2023-07-31T08:27:51;6.78;;;2.13;;
14770;SDS011;7477;45.222;5.688;2023-07-31T08:31:11;4.25;;;2.30;;
14770;SDS011;7477;45.222;5.688;2023-07-31T08:34:30;4.78;;;2.03;;
14770;SDS011;7477;45.222;5.688;2023-07-31T08:37:50;3.47;;;2.20;;
14770;SDS011;7477;45.222;5.688;2023-07-31T08:41:09;3.70;;;1.95;;
14770;SDS011;7477;45.222;5.688;2023-07-31T08:44:29;4.97;;;2.20;;
14770;SDS011;7477;45.222;5.688;2023-07-31T08:47:50;3.42;;;1.90;;
14770;SDS011;7477;45.222;5.688;2023-07-31T08:51:10;3.28;;;2.22;;
14770;SDS011;7477;45.222;5.688;2023-07-31T08:54:30;3.70;;;1.73;;
14770;SDS011;7477;45.222;5.688;2023-07-31T08:57:51;4.70;;;1.90;;
14770;SDS011;7477;45.222;5.688;2023-07-31T09:01:14;3.15;;;1.98;;
14770;SDS011;7477;45.222;5.688;2023-07-31T09:04:34;4.45;;;2.17;;
14770;SDS011;7477;45.222;5.688;2023-07-31T09:07:54;4.78;;;2.22;;
14770;SDS011;7477;45.222;5.688;2023-07-31T09:11:15;3.17;;;1.90;;
14770;SDS011;7477;45.222;5.688;2023-07-31T09:14:35;5.82;;;1.90;;
14770;SDS011;7477;45.222;5.688;2023-07-31T09:18:00;4.07;;;2.25;;
14770;SDS011;7477;45.222;5.688;2023-07-31T09:21:19;4.22;;;2.00;;
14770;SDS011;7477;45.222;5.688;2023-07-31T09:24:38;4.00;;;2.20;;
14770;SDS011;7477;45.222;5.688;2023-07-31T09:28:16;1.98;;;1.73;;
14770;SDS011;7477;45.222;5.688;2023-07-31T09:31:42;3.58;;;2.20;;
14770;SDS011;7477;45.222;5.688;2023-07-31T09:35:08;4.47;;;1.92;;
14770;SDS011;7477;45.222;5.688;2023-07-31T09:38:38;4.05;;;2.35;;
14770;SDS011;7477;45.222;5.688;2023-07-31T09:41:57;2.55;;;1.70;;
14770;SDS011;7477;45.222;5.688;2023-07-31T09:45:17;2.83;;;1.83;;
14770;SDS011;7477;45.222;5.688;2023-07-31T09:48:38;1.92;;;1.70;;
14770;SDS011;7477;45.222;5.688;2023-07-31T09:51:58;3.00;;;2.03;;
14770;SDS011;7477;45.222;5.688;2023-07-31T09:55:18;2.08;;;1.65;;
14770;SDS011;7477;45.222;5.688;2023-07-31T09:58:37;2.28;;;1.52;;
14770;SDS011;7477;45.222;5.688;2023-07-31T10:01:57;2.80;;;1.70;;
14770;SDS011;7477;45.222;5.688;2023-07-31T10:05:16;4.22;;;2.03;;
14770;SDS011;7477;45.222;5.688;2023-07-31T10:08:36;1.90;;;1.63;;
14770;SDS011;7477;45.222;5.688;2023-07-31T10:11:59;6.45;;;2.17;;
14770;SDS011;7477;45.222;5.688;2023-07-31T10:15:21;4.40;;;2.05;;
14770;SDS011;7477;45.222;5.688;2023-07-31T10:18:41;1.65;;;1.50;;
14770;SDS011;7477;45.222;5.688;2023-07-31T10:22:02;2.17;;;1.75;;
14770;SDS011;7477;45.222;5.688;2023-07-31T10:25:22;3.83;;;3.00;;
14770;SDS011;7477;45.222;5.688;2023-07-31T10:28:42;3.08;;;2.13;;
14770;SDS011;7477;45.222;5.688;2023-07-31T10:32:06;2.42;;;1.70;;
14770;SDS011;7477;45.222;5.688;2023-07-31T10:35:29;3.45;;;2.10;;
14770;SDS011;7477;45.222;5.688;2023-07-31T10:38:48;2.95;;;1.95;;
14770;SDS011;7477;45.222;5.688;2023-07-31T10:42:12;1.90;;;1.75;;
14770;SDS011;7477;45.222;5.688;2023-07-31T10:45:36;2.80;;;2.00;;
14770;SDS011;7477;45.222;5.688;2023-07-31T10:49:02;4.72;;;1.85;;
14770;SDS011;7477;45.222;5.688;2023-07-31T10:52:21;2.33;;;1.98;;
14770;SDS011;7477;45.222;5.688;2023-07-31T10:55:45;2.20;;;1.88;;
14770;SDS011;7477;45.222;5.688;2023-07-31T10:59:05;1.95;;;1.75;;
14770;SDS011;7477;45.222;5.688;2023-07-31T11:02:25;3.13;;;2.30;;
14770;SDS011;7477;45.222;5.688;2023-07-31T11:05:55;3.78;;;2.10;;
14770;SDS011;7477;45.222;5.688;2023-07-31T11:09:22;4.85;;;2.08;;
14770;SDS011;7477;45.222;5.688;2023-07-31T11:12:46;4.70;;;2.20;;
14770;SDS011;7477;45.222;5.688;2023-07-31T11:16:05;2.25;;;1.75;;
14770;SDS011;7477;45.222;5.688;2023-07-31T11:19:24;4.28;;;2.03;;
14770;SDS011;7477;45.222;5.688;2023-07-31T11:22:44;2.97;;;1.80;;
14770;SDS011;7477;45.222;5.688;2023-07-31T11:26:04;4.43;;;1.92;;
14770;SDS011;7477;45.222;5.688;2023-07-31T11:29:27;3.65;;;1.95;;
14770;SDS011;7477;45.222;5.688;2023-07-31T11:32:47;3.70;;;2.08;;
14770;SDS011;7477;45.222;5.688;2023-07-31T11:36:13;4.13;;;1.73;;
14770;SDS011;7477;45.222;5.688;2023-07-31T11:39:37;1.95;;;1.80;;
14770;SDS011;7477;45.222;5.688;2023-07-31T11:42:56;2.65;;;1.60;;
14770;SDS011;7477;45.222;5.688;2023-07-31T11:46:23;4.10;;;2.10;;
14770;SDS011;7477;45.222;5.688;2023-07-31T11:49:43;4.32;;;1.85;;
14770;SDS011;7477;45.222;5.688;2023-07-31T11:53:04;4.30;;;2.40;;
14770;SDS011;7477;45.222;5.688;2023-07-31T11:56:27;2.17;;;1.88;;
14770;SDS011;7477;45.222;5.688;2023-07-31T11:59:47;1.88;;;1.65;;
14770;SDS011;7477;45.222;5.688;2023-07-31T12:03:06;3.30;;;2.55;;
14770;SDS011;7477;45.222;5.688;2023-07-31T12:06:35;9.75;;;3.55;;
14770;SDS011;7477;45.222;5.688;2023-07-31T12:09:55;29.30;;;8.18;;
14770;SDS011;7477;45.222;5.688;2023-07-31T12:13:22;17.33;;;6.05;;
14770;SDS011;7477;45.222;5.688;2023-07-31T12:16:43;10.30;;;4.07;;
14770;SDS011;7477;45.222;5.688;2023-07-31T12:20:04;8.63;;;3.75;;
14770;SDS011;7477;45.222;5.688;2023-07-31T12:23:30;9.00;;;3.60;;
14770;SDS011;7477;45.222;5.688;2023-07-31T12:26:50;7.50;;;3.47;;
14770;SDS011;7477;45.222;5.688;2023-07-31T12:30:31;7.40;;;3.38;;
14770;SDS011;7477;45.222;5.688;2023-07-31T12:33:53;8.05;;;2.42;;
14770;SDS011;7477;45.222;5.688;2023-07-31T12:37:13;5.70;;;2.95;;
14770;SDS011;7477;45.222;5.688;2023-07-31T12:40:33;5.85;;;3.03;;
14770;SDS011;7477;45.222;5.688;2023-07-31T12:43:54;5.80;;;2.97;;
14770;SDS011;7477;45.222;5.688;2023-07-31T12:47:13;5.63;;;3.25;;
14770;SDS011;7477;45.222;5.688;2023-07-31T12:50:34;4.05;;;2.00;;
14770;SDS011;7477;45.222;5.688;2023-07-31T12:53:55;4.55;;;2.45;;
14770;SDS011;7477;45.222;5.688;2023-07-31T12:57:14;6.10;;;2.70;;
14770;SDS011;7477;45.222;5.688;2023-07-31T13:00:33;3.28;;;2.20;;
14770;SDS011;7477;45.222;5.688;2023-07-31T13:03:52;3.65;;;2.45;;
14770;SDS011;7477;45.222;5.688;2023-07-31T13:07:12;3.85;;;2.05;;
14770;SDS011;7477;45.222;5.688;2023-07-31T13:10:31;3.15;;;2.30;;
14770;SDS011;7477;45.222;5.688;2023-07-31T13:13:53;5.20;;;2.50;;
14770;SDS011;7477;45.222;5.688;2023-07-31T13:17:12;4.50;;;2.50;;
14770;SDS011;7477;45.222;5.688;2023-07-31T13:20:31;5.10;;;2.00;;
14770;SDS011;7477;45.222;5.688;2023-07-31T13:23:50;3.95;;;2.17;;
14770;SDS011;7477;45.222;5.688;2023-07-31T13:27:09;4.05;;;1.95;;
14770;SDS011;7477;45.222;5.688;2023-07-31T13:30:29;4.30;;;2.13;;
14770;SDS011;7477;45.222;5.688;2023-07-31T13:33:48;3.90;;;2.22;;
14770;SDS011;7477;45.222;5.688;2023-07-31T13:37:07;3.53;;;2.10;;
14770;SDS011;7477;45.222;5.688;2023-07-31T13:40:26;3.35;;;2.00;;
14770;SDS011;7477;45.222;5.688;2023-07-31T13:43:46;4.65;;;2.08;;
14770;SDS011;7477;45.222;5.688;2023-07-31T13:47:06;2.97;;;1.85;;
14770;SDS011;7477;45.222;5.688;2023-07-31T13:50:26;4.82;;;1.85;;
14770;SDS011;7477;45.222;5.688;2023-07-31T13:53:46;4.05;;;1.77;;
14770;SDS011;7477;45.222;5.688;2023-07-31T13:57:05;4.15;;;2.35;;
14770;SDS011;7477;45.222;5.688;2023-07-31T14:00:24;3.33;;;1.88;;
14770;SDS011;7477;45.222;5.688;2023-07-31T14:03:44;4.43;;;2.13;;
14770;SDS011;7477;45.222;5.688;2023-07-31T14:07:03;4.60;;;2.40;;
14770;SDS011;7477;45.222;5.688;2023-07-31T14:10:23;2.30;;;1.67;;
14770;SDS011;7477;45.222;5.688;2023-07-31T14:13:42;2.60;;;1.70;;
14770;SDS011;7477;45.222;5.688;2023-07-31T14:17:01;2.65;;;1.88;;
14770;SDS011;7477;45.222;5.688;2023-07-31T14:20:21;3.20;;;2.15;;
14770;SDS011;7477;45.222;5.688;2023-07-31T14:23:40;4.50;;;2.05;;
14770;SDS011;7477;45.222;5.688;2023-07-31T14:27:00;5.32;;;2.17;;
14770;SDS011;7477;45.222;5.688;2023-07-31T14:30:25;3.90;;;1.88;;
14770;SDS011;7477;45.222;5.688;2023-07-31T14:33:44;2.72;;;1.88;;
14770;SDS011;7477;45.222;5.688;2023-07-31T14:37:04;4.18;;;2.00;;
14770;SDS011;7477;45.222;5.688;2023-07-31T14:40:23;4.40;;;2.35;;
14770;SDS011;7477;45.222;5.688;2023-07-31T14:43:42;4.13;;;2.03;;
14770;SDS011;7477;45.222;5.688;2023-07-31T14:47:01;2.83;;;2.13;;
14770;SDS011;7477;45.222;5.688;2023-07-31T14:50:20;3.85;;;2.30;;
14770;SDS011;7477;45.222;5.688;2023-07-31T14:53:40;3.53;;;1.80;;
14770;SDS011;7477;45.222;5.688;2023-07-31T14:56:59;5.03;;;2.50;;
14770;SDS011;7477;45.222;5.688;2023-07-31T15:00:18;2.70;;;2.03;;
14770;SDS011;7477;45.222;5.688;2023-07-31T15:03:38;3.08;;;2.17;;
14770;SDS011;7477;45.222;5.688;2023-07-31T15:06:57;4.07;;;2.22;;
14770;SDS011;7477;45.222;5.688;2023-07-31T15:10:16;4.78;;;2.53;;
14770;SDS011;7477;45.222;5.688;2023-07-31T15:13:36;5.00;;;2.58;;
14770;SDS011;7477;45.222;5.688;2023-07-31T15:16:55;4.47;;;2.25;;
14770;SDS011;7477;45.222;5.688;2023-07-31T15:20:14;2.38;;;2.10;;
14770;SDS011;7477;45.222;5.688;2023-07-31T15:23:34;3.58;;;2.33;;
14770;SDS011;7477;45.222;5.688;2023-07-31T15:26:53;2.20;;;1.80;;
14770;SDS011;7477;45.222;5.688;2023-07-31T15:30:13;3.88;;;2.30;;
14770;SDS011;7477;45.222;5.688;2023-07-31T15:33:32;5.70;;;2.53;;
14770;SDS011;7477;45.222;5.688;2023-07-31T15:36:51;2.95;;;2.47;;
14770;SDS011;7477;45.222;5.688;2023-07-31T15:40:10;3.92;;;2.65;;
14770;SDS011;7477;45.222;5.688;2023-07-31T15:43:30;2.40;;;2.20;;
14770;SDS011;7477;45.222;5.688;2023-07-31T15:46:49;5.15;;;2.60;;
14770;SDS011;7477;45.222;5.688;2023-07-31T15:50:08;3.35;;;2.63;;
14770;SDS011;7477;45.222;5.688;2023-07-31T15:53:28;3.72;;;2.72;;
14770;SDS011;7477;45.222;5.688;2023-07-31T15:56:49;6.45;;;2.55;;
14770;SDS011;7477;45.222;5.688;2023-07-31T16:00:08;3.50;;;2.70;;
14770;SDS011;7477;45.222;5.688;2023-07-31T16:03:28;2.88;;;2.67;;
14770;SDS011;7477;45.222;5.688;2023-07-31T16:06:47;5.00;;;2.67;;
14770;SDS011;7477;45.222;5.688;2023-07-31T16:10:06;3.65;;;3.03;;
14770;SDS011;7477;45.222;5.688;2023-07-31T16:13:26;6.40;;;3.28;;
14770;SDS011;7477;45.222;5.688;2023-07-31T16:16:45;3.15;;;2.58;;
14770;SDS011;7477;45.222;5.688;2023-07-31T16:20:05;6.40;;;3.10;;
14770;SDS011;7477;45.222;5.688;2023-07-31T16:23:24;4.95;;;2.88;;
14770;SDS011;7477;45.222;5.688;2023-07-31T16:26:44;5.68;;;3.22;;
14770;SDS011;7477;45.222;5.688;2023-07-31T16:30:03;4.55;;;2.75;;
14770;SDS011;7477;45.222;5.688;2023-07-31T16:33:22;3.75;;;3.08;;
14770;SDS011;7477;45.222;5.688;2023-07-31T16:36:42;3.97;;;2.88;;
14770;SDS011;7477;45.222;5.688;2023-07-31T16:40:01;5.50;;;2.90;;
14770;SDS011;7477;45.222;5.688;2023-07-31T16:43:21;5.07;;;2.90;;
14770;SDS011;7477;45.222;5.688;2023-07-31T16:46:41;4.03;;;3.05;;
14770;SDS011;7477;45.222;5.688;2023-07-31T16:50:00;3.65;;;2.83;;
14770;SDS011;7477;45.222;5.688;2023-07-31T16:53:19;6.18;;;2.97;;
14770;SDS011;7477;45.222;5.688;2023-07-31T16:56:38;6.47;;;3.05;;
14770;SDS011;7477;45.222;5.688;2023-07-31T16:59:58;4.72;;;3.15;;
14770;SDS011;7477;45.222;5.688;2023-07-31T17:03:17;3.88;;;2.80;;
14770;SDS011;7477;45.222;5.688;2023-07-31T17:06:36;4.20;;;3.40;;
14770;SDS011;7477;45.222;5.688;2023-07-31T17:09:55;7.43;;;3.40;;
14770;SDS011;7477;45.222;5.688;2023-07-31T17:13:16;4.97;;;3.28;;
14770;SDS011;7477;45.222;5.688;2023-07-31T17:16:35;3.90;;;3.22;;
14770;SDS011;7477;45.222;5.688;2023-07-31T17:19:54;4.85;;;3.55;;
14770;SDS011;7477;45.222;5.688;2023-07-31T17:23:14;3.90;;;3.25;;
14770;SDS011;7477;45.222;5.688;2023-07-31T17:26:33;4.55;;;3.55;;
14770;SDS011;7477;45.222;5.688;2023-07-31T17:29:52;5.25;;;3.53;;
14770;SDS011;7477;45.222;5.688;2023-07-31T17:33:11;3.85;;;3.10;;
14770;SDS011;7477;45.222;5.688;2023-07-31T17:36:30;5.00;;;3.20;;
14770;SDS011;7477;45.222;5.688;2023-07-31T17:39:51;6.93;;;3.47;;
14770;SDS011;7477;45.222;5.688;2023-07-31T17:43:10;4.80;;;3.05;;
14770;SDS011;7477;45.222;5.688;2023-07-31T17:46:29;6.18;;;3.72;;
14770;SDS011;7477;45.222;5.688;2023-07-31T17:49:48;5.65;;;3.75;;
14770;SDS011;7477;45.222;5.688;2023-07-31T17:53:07;7.03;;;3.67;;
14770;SDS011;7477;45.222;5.688;2023-07-31T17:56:27;5.07;;;3.47;;
14770;SDS011;7477;45.222;5.688;2023-07-31T17:59:47;5.45;;;3.40;;
14770;SDS011;7477;45.222;5.688;2023-07-31T18:03:06;7.32;;;4.03;;
14770;SDS011;7477;45.222;5.688;2023-07-31T18:06:30;3.53;;;2.97;;
14770;SDS011;7477;45.222;5.688;2023-07-31T18:09:53;4.30;;;3.17;;
14770;SDS011;7477;45.222;5.688;2023-07-31T18:13:12;5.70;;;3.28;;
14770;SDS011;7477;45.222;5.688;2023-07-31T18:16:33;4.55;;;3.53;;
14770;SDS011;7477;45.222;5.688;2023-07-31T18:19:52;6.00;;;3.53;;
14770;SDS011;7477;45.222;5.688;2023-07-31T18:23:11;3.67;;;2.70;;
14770;SDS011;7477;45.222;5.688;2023-07-31T18:26:30;4.32;;;2.67;;
14770;SDS011;7477;45.222;5.688;2023-07-31T18:29:50;3.67;;;2.60;;
14770;SDS011;7477;45.222;5.688;2023-07-31T18:33:09;3.30;;;2.35;;
14770;SDS011;7477;45.222;5.688;2023-07-31T18:36:28;3.05;;;2.63;;
14770;SDS011;7477;45.222;5.688;2023-07-31T18:39:48;3.65;;;2.38;;
14770;SDS011;7477;45.222;5.688;2023-07-31T18:43:07;3.53;;;2.60;;
14770;SDS011;7477;45.222;5.688;2023-07-31T18:46:26;3.30;;;2.55;;
14770;SDS011;7477;45.222;5.688;2023-07-31T18:49:46;4.40;;;2.80;;
14770;SDS011;7477;45.222;5.688;2023-07-31T18:53:05;3.45;;;2.85;;
14770;SDS011;7477;45.222;5.688;2023-07-31T18:56:24;3.08;;;2.78;;
14770;SDS011;7477;45.222;5.688;2023-07-31T18:59:43;3.55;;;2.85;;
14770;SDS011;7477;45.222;5.688;2023-07-31T19:03:02;4.72;;;2.60;;
14770;SDS011;7477;45.222;5.688;2023-07-31T19:06:22;3.67;;;2.78;;
14770;SDS011;7477;45.222;5.688;2023-07-31T19:09:41;3.92;;;2.90;;
14770;SDS011;7477;45.222;5.688;2023-07-31T19:13:00;3.22;;;2.92;;
14770;SDS011;7477;45.222;5.688;2023-07-31T19:16:19;5.45;;;3.53;;
14770;SDS011;7477;45.222;5.688;2023-07-31T19:19:40;4.63;;;3.53;;
14770;SDS011;7477;45.222;5.688;2023-07-31T19:22:59;5.10;;;3.00;;
14770;SDS011;7477;45.222;5.688;2023-07-31T19:26:19;4.22;;;3.00;;
14770;SDS011;7477;45.222;5.688;2023-07-31T19:29:38;5.63;;;2.80;;
14770;SDS011;7477;45.222;5.688;2023-07-31T19:32:57;3.55;;;2.83;;
14770;SDS011;7477;45.222;5.688;2023-07-31T19:36:16;4.68;;;2.97;;
14770;SDS011;7477;45.222;5.688;2023-07-31T19:39:36;6.72;;;2.78;;
14770;SDS011;7477;45.222;5.688;2023-07-31T19:42:55;4.53;;;3.25;;
14770;SDS011;7477;45.222;5.688;2023-07-31T19:46:16;4.03;;;3.13;;
14770;SDS011;7477;45.222;5.688;2023-07-31T19:49:35;5.63;;;3.15;;
14770;SDS011;7477;45.222;5.688;2023-07-31T19:52:55;4.00;;;3.22;;
14770;SDS011;7477;45.222;5.688;2023-07-31T19:56:14;4.20;;;3.55;;
14770;SDS011;7477;45.222;5.688;2023-07-31T19:59:33;4.90;;;3.30;;
14770;SDS011;7477;45.222;5.688;2023-07-31T20:02:52;3.90;;;3.20;;
14770;SDS011;7477;45.222;5.688;2023-07-31T20:06:11;4.38;;;3.00;;
14770;SDS011;7477;45.222;5.688;2023-07-31T20:09:30;6.70;;;3.50;;
14770;SDS011;7477;45.222;5.688;2023-07-31T20:12:50;4.07;;;3.08;;
14770;SDS011;7477;45.222;5.688;2023-07-31T20:16:10;6.38;;;3.20;;
14770;SDS011;7477;45.222;5.688;2023-07-31T20:19:29;4.35;;;3.03;;
14770;SDS011;7477;45.222;5.688;2023-07-31T20:22:49;7.47;;;3.30;;
14770;SDS011;7477;45.222;5.688;2023-07-31T20:26:08;5.28;;;3.85;;
14770;SDS011;7477;45.222;5.688;2023-07-31T20:29:28;4.72;;;3.30;;
14770;SDS011;7477;45.222;5.688;2023-07-31T20:32:47;4.90;;;3.53;;